Air Resources Laboratory banner image
Air Resources Laboratory web site National Oceanic and Atmospheric Administration (NOAA)

in metar


KAID 251055Z AUTO 00000KT 10SM CLR 13/11 A3004 RMK AO2 T01250114=
KBAK 251045Z 00000KT 10SM SKC 14/12 A3003=
KBMG 251053Z 00000KT 10SM CLR 14/13 A3002 RMK AO2 SLP160 T01390133=
KEKM 251050Z 00000KT 10SM CLR 13/12 A3000 RMK AO2=
KEVV 251054Z 00000KT 10SM CLR 17/16 A3001 RMK AO2 SLP159 T01670156 $=
KEYE 251053Z AUTO 00000KT 9SM CLR 16/14 A3002 RMK AO2 SLP160 T01560139=
KFWA 251054Z 00000KT 10SM FEW200 FEW300 14/11 A3003 RMK AO2 SLP164 T01390111=
KGEZ 251053Z AUTO 10004KT 10SM CLR 15/12 A3002 RMK AO2 SLP160 T01500122=
KGSH 251053Z AUTO 00000KT 10SM CLR 14/12 A3001 RMK AO2 SLP159 T01440117=
KGUS 251056Z AUTO 17003KT 10SM CLR 16/12 A3001 RMK AO2 SLP161 T01570123=
KHLB 251055Z AUTO 00000KT 6SM BR CLR 12/12 A3004 RMK A01=
KHNB 251056Z AUTO 00000KT 10SM CLR 15/14 A3002 RMK AO2 SLP161 T01500139=
KHUF 251053Z 00000KT 10SM CLR 14/13 A3001 RMK AO2 SLP157 T01440128=
KIND 251054Z 00000KT 7SM FEW250 18/13 A3002 RMK AO2 SLP159 T01780133=
KLAF 251054Z 00000KT 10SM CLR 13/12 A3001 RMK AO2 SLP157 T01280117=
KMIE 251053Z 00000KT 10SM CLR 15/11 A3004 RMK AO2 SLP161 T01500111=
KSBN 251054Z 19003KT 10SM CLR 16/09 A3000 RMK AO2 SLP155 T01610094=
KVPZ 251056Z AUTO 19003KT 10SM CLR 18/11 A3000 RMK AO2 SLP153 T01780106=